Schenectady, NY (12301)

12:58 AM EDT on July 26, 2016 (GMT -0400)
Stockade | | Change Station

Elev 249 ft 42.82 °N, 73.95 °W | Updated 14 seconds ago

Scattered Clouds
Scattered Clouds
71.2 °F
Feels Like 74 °F
N
4.0
Wind Variable Wind from ESE
Gusts 4.0 mph

Today
High -- | Low -- °F
--% Chance of Precip.
Yesterday
High -- | Low -- °F
Precip. -- in
Pressure 29.83 in
Visibility 10.0 miles
Clouds Few 3000 ft
Few 4800 ft
Scattered Clouds 26000 ft
Heat Index 74 °F
Dew Point 61 °F
Humidity 71%
Rainfall 0.00 in
Snow Depth Not available.
5:41 AM 8:22 PM
Waning Gibbous, 59% visible
METAR KALB 260451Z 15003KT 10SM FEW030 FEW048 SCT260 23/21 A2984 RMK AO2 SLP100 T02280206 403170194
Pressure 29.83 in
Visibility 10.0 miles
Clouds Few 3000 ft
Few 4800 ft
Scattered Clouds 26000 ft
Heat Index 74 °F
Dew Point 61 °F
Humidity 71%
Rainfall 0.00 in
Snow Depth Not available.
5:41 AM 8:22 PM
Waning Gibbous, 59% visible
METAR KALB 260451Z 15003KT 10SM FEW030 FEW048 SCT260 23/21 A2984 RMK AO2 SLP100 T02280206 403170194

10-Day Weather Forecast

Almanac

Astronomy

Jul. 26, 2016 Rise Set
Actual Time
Civil Twilight
Nautical Twilight
Astronomical Twilight
Moon
Length of Visible Light
Length of Day
Tomorrow will be .
, % of the Moon is Illuminated

Today's Extremes

State Highs State Lows

Community

WunderPhotos

Upload Photos

1,927,536 photos uploaded!

WunderBlog® & News

Nearby

Air Quality

  Air Quality AQ Index Pollutant
Not available.

Snow Depth

Station Depth Elevation

Earthquake Activity

City Distance Mag. Time & Date
Minimum magnitude displayed is 2.5.

Coastal Water Temperatures

Place Temperature

Stations

Nearby Weather Stations

Station Location Temp. Windchill Dew Point Humidity Wind Precip. Elev Updated Type
                   

Watches & Warnings

There are currently no watches in effect.